Time;durP1;ratioP1;P1;durP2;ratioP2;P2;SDS_P1;SDS_P2;PMS_P1;PMS_P2;Temp;Humidity;BMP_temperature;BMP_pressure;BME280_temperature;BME280_humidity;BME280_pressure;Samples;Min_cycle;Max_cycle;Signal;HPM_P1;HPM_P2
2022/04/17 00:00:17;;;;;;;0.70;0.70;;;;;;;;;;4946210;29;20211;-62
2022/04/17 00:02:44;;;;;;;3.03;1.07;;;;;;;;;;4946686;28;20588;-62
2022/04/17 00:05:12;;;;;;;0.60;0.60;;;;;;;;;;4946541;29;20673;-62
2022/04/17 00:07:40;;;;;;;0.70;0.70;;;;;;;;;;4947214;29;20600;-62
2022/04/17 00:10:08;;;;;;;0.87;0.87;;;;;;;;;;4946173;29;20325;-62
2022/04/17 00:12:35;;;;;;;1.43;0.80;;;;;;;;;;4942282;29;20295;-62
2022/04/17 00:15:03;;;;;;;0.63;0.63;;;;;;;;;;4943036;29;20214;-62
2022/04/17 00:17:30;;;;;;;1.47;1.20;;;;;;;;;;4927780;29;20226;-62
2022/04/17 00:19:58;;;;;;;1.27;0.80;;;;;;;;;;4942659;29;20226;-62
2022/04/17 00:22:26;;;;;;;0.70;0.70;;;;;;;;;;4932488;29;20369;-62
2022/04/17 00:24:53;;;;;;;0.70;0.70;;;;;;;;;;4928308;29;20593;-62
2022/04/17 00:27:20;;;;;;;1.80;0.80;;;;;;;;;;4938933;29;20219;-65
2022/04/17 00:29:47;;;;;;;0.80;0.77;;;;;;;;;;4927287;29;20239;-63
2022/04/17 00:32:15;;;;;;;1.60;1.50;;;;;;;;;;4939799;29;20203;-62
2022/04/17 00:34:44;;;;;;;2.30;2.00;;;;;;;;;;4927217;29;20226;-63
2022/04/17 00:37:11;;;;;;;1.63;0.97;;;;;;;;;;4927271;29;20312;-63
2022/04/17 00:39:40;;;;;;;1.07;1.07;;;;;;;;;;4933542;29;20211;-63
2022/04/17 00:42:09;;;;;;;1.00;0.90;;;;;;;;;;4944477;29;20230;-63
2022/04/17 00:44:36;;;;;;;0.83;0.83;;;;;;;;;;4942611;29;20862;-63
2022/04/17 00:47:03;;;;;;;1.10;1.10;;;;;;;;;;4934325;29;20212;-63
2022/04/17 00:49:30;;;;;;;0.90;0.90;;;;;;;;;;4943022;29;20632;-63
2022/04/17 00:51:57;;;;;;;3.13;1.20;;;;;;;;;;4935124;29;20215;-63
2022/04/17 00:54:25;;;;;;;0.90;0.90;;;;;;;;;;4935151;29;20219;-63
2022/04/17 00:56:54;;;;;;;0.70;0.70;;;;;;;;;;4934025;29;20206;-63
2022/04/17 00:59:22;;;;;;;3.73;1.03;;;;;;;;;;4946015;29;20214;-64
2022/04/17 01:01:49;;;;;;;0.90;0.90;;;;;;;;;;4930824;29;20321;-63
2022/04/17 01:04:16;;;;;;;1.17;0.70;;;;;;;;;;4941330;29;20211;-63
2022/04/17 01:06:44;;;;;;;0.97;0.90;;;;;;;;;;4945318;29;20226;-64
2022/04/17 01:09:11;;;;;;;0.80;0.80;;;;;;;;;;4946280;29;20338;-64
2022/04/17 01:11:39;;;;;;;1.30;0.87;;;;;;;;;;4931944;29;20215;-64
2022/04/17 01:14:12;;;;;;;0.80;0.80;;;;;;;;;;4948068;28;20681;-64
2022/04/17 01:16:39;;;;;;;0.97;0.97;;;;;;;;;;4963230;28;20212;-64
2022/04/17 01:19:11;;;;;;;1.17;1.17;;;;;;;;;;4946274;29;20238;-64
2022/04/17 01:21:40;;;;;;;1.60;1.00;;;;;;;;;;4930992;29;20243;-64
2022/04/17 01:26:56;;;;;;;0.87;0.87;;;;;;;;;;4944083;29;20281;-64
2022/04/17 01:29:25;;;;;;;1.00;1.00;;;;;;;;;;4942677;29;20242;-64
2022/04/17 01:31:52;;;;;;;0.90;0.90;;;;;;;;;;4931948;29;20239;-63
2022/04/17 01:34:19;;;;;;;0.80;0.80;;;;;;;;;;4951546;29;20215;-64
2022/04/17 01:36:48;;;;;;;0.97;0.97;;;;;;;;;;4948012;29;20266;-63
2022/04/17 01:39:15;;;;;;;0.80;0.80;;;;;;;;;;4950686;29;20258;-63
2022/04/17 01:41:43;;;;;;;1.10;1.10;;;;;;;;;;4950525;29;20747;-64
2022/04/17 01:44:10;;;;;;;1.00;1.00;;;;;;;;;;4950088;28;20246;-64
2022/04/17 01:46:37;;;;;;;1.07;1.00;;;;;;;;;;4952359;29;20207;-63
2022/04/17 01:49:04;;;;;;;0.67;0.67;;;;;;;;;;4951561;29;20203;-64
2022/04/17 01:51:37;;;;;;;0.80;0.80;;;;;;;;;;4952331;29;20290;-63
2022/04/17 01:54:06;;;;;;;1.13;0.93;;;;;;;;;;4952002;29;20204;-63
2022/04/17 01:56:33;;;;;;;0.80;0.80;;;;;;;;;;4952635;29;20217;-64
2022/04/17 01:59:00;;;;;;;0.70;0.70;;;;;;;;;;4950590;29;20238;-64
2022/04/17 02:01:27;;;;;;;0.90;0.90;;;;;;;;;;4952024;29;20736;-64
2022/04/17 02:03:54;;;;;;;0.83;0.83;;;;;;;;;;4948838;29;20826;-64
2022/04/17 02:06:21;;;;;;;0.67;0.67;;;;;;;;;;4952552;29;20211;-64
2022/04/17 02:08:48;;;;;;;0.70;0.70;;;;;;;;;;4951373;29;20269;-64
2022/04/17 02:11:16;;;;;;;1.00;0.80;;;;;;;;;;4951866;29;20203;-64
2022/04/17 02:13:43;;;;;;;3.03;0.80;;;;;;;;;;4951650;29;20269;-63
2022/04/17 02:16:10;;;;;;;0.80;0.80;;;;;;;;;;4949898;29;20203;-65
2022/04/17 02:18:37;;;;;;;0.80;0.80;;;;;;;;;;4952028;29;20261;-62
2022/04/17 02:21:05;;;;;;;1.10;1.10;;;;;;;;;;4949793;29;20214;-62
2022/04/17 02:23:32;;;;;;;1.17;1.17;;;;;;;;;;4951904;29;20313;-62
2022/04/17 02:26:00;;;;;;;1.60;1.10;;;;;;;;;;4949324;28;20383;-62
2022/04/17 02:28:34;;;;;;;0.70;0.70;;;;;;;;;;4949166;29;20207;-62
2022/04/17 02:31:01;;;;;;;1.93;1.20;;;;;;;;;;4949414;29;20317;-63
2022/04/17 02:33:28;;;;;;;1.00;1.00;;;;;;;;;;4950151;29;20274;-62
2022/04/17 02:35:55;;;;;;;1.37;1.27;;;;;;;;;;4949523;29;20272;-62
2022/04/17 02:38:22;;;;;;;1.30;1.20;;;;;;;;;;4950663;29;20485;-62
2022/04/17 02:40:49;;;;;;;1.73;0.87;;;;;;;;;;4951932;29;20272;-62
2022/04/17 02:43:16;;;;;;;1.00;1.00;;;;;;;;;;4948910;29;20227;-62
2022/04/17 02:45:45;;;;;;;2.03;1.00;;;;;;;;;;4951796;29;20215;-65
2022/04/17 02:48:12;;;;;;;1.07;1.07;;;;;;;;;;4950403;29;20203;-62
2022/04/17 02:50:40;;;;;;;0.90;0.90;;;;;;;;;;4949920;29;20242;-63
2022/04/17 02:53:07;;;;;;;1.70;1.07;;;;;;;;;;4946708;29;20218;-62
2022/04/17 02:55:34;;;;;;;0.80;0.80;;;;;;;;;;4951815;29;20293;-62
2022/04/17 02:58:02;;;;;;;1.23;1.20;;;;;;;;;;4948816;29;20626;-62
2022/04/17 03:00:30;;;;;;;1.00;1.00;;;;;;;;;;4951467;29;20224;-62
2022/04/17 03:05:44;;;;;;;1.23;0.97;;;;;;;;;;4951185;29;20234;-63
2022/04/17 03:08:12;;;;;;;0.83;0.83;;;;;;;;;;4950249;29;20230;-63
2022/04/17 03:10:39;;;;;;;0.90;0.90;;;;;;;;;;4950714;29;20267;-63
2022/04/17 03:13:07;;;;;;;0.90;0.90;;;;;;;;;;4948622;29;20202;-63
2022/04/17 03:15:35;;;;;;;1.00;1.00;;;;;;;;;;4950505;29;20259;-63
2022/04/17 03:18:04;;;;;;;3.13;1.10;;;;;;;;;;4949008;29;20209;-63
2022/04/17 03:20:31;;;;;;;1.03;1.03;;;;;;;;;;4950629;29;20256;-64
2022/04/17 03:22:58;;;;;;;0.70;0.70;;;;;;;;;;4948768;29;20262;-63
2022/04/17 03:25:25;;;;;;;1.23;1.13;;;;;;;;;;4948917;29;20281;-62
2022/04/17 03:27:53;;;;;;;1.07;1.07;;;;;;;;;;4935805;29;20210;-63
2022/04/17 03:30:20;;;;;;;1.93;1.13;;;;;;;;;;4940871;28;20318;-63
2022/04/17 03:32:49;;;;;;;0.87;0.87;;;;;;;;;;4941382;29;20257;-65
2022/04/17 03:35:19;;;;;;;0.70;0.70;;;;;;;;;;4943455;29;20211;-64
2022/04/17 03:37:46;;;;;;;1.53;1.00;;;;;;;;;;4934536;29;20215;-63
2022/04/17 03:40:14;;;;;;;1.30;1.00;;;;;;;;;;4943138;29;20260;-63
2022/04/17 03:42:42;;;;;;;0.93;0.93;;;;;;;;;;4948732;29;20235;-64
2022/04/17 03:45:11;;;;;;;0.90;0.90;;;;;;;;;;4944764;29;20493;-62
2022/04/17 03:47:39;;;;;;;1.03;1.03;;;;;;;;;;4949203;29;20204;-62
2022/04/17 03:50:06;;;;;;;0.80;0.80;;;;;;;;;;4943729;29;20242;-63
2022/04/17 03:52:40;;;;;;;0.97;0.97;;;;;;;;;;4940772;29;20204;-63
2022/04/17 03:55:07;;;;;;;1.10;1.10;;;;;;;;;;4944229;29;20673;-62
2022/04/17 03:57:35;;;;;;;1.40;1.00;;;;;;;;;;4943581;29;20203;-63
2022/04/17 04:00:02;;;;;;;1.00;1.00;;;;;;;;;;4946969;29;20695;-63
2022/04/17 04:02:30;;;;;;;0.70;0.70;;;;;;;;;;4943805;29;20224;-63
2022/04/17 04:04:57;;;;;;;1.10;1.10;;;;;;;;;;4931548;29;20212;-63
2022/04/17 04:07:24;;;;;;;0.80;0.80;;;;;;;;;;4936725;29;20297;-63
2022/04/17 04:09:52;;;;;;;0.80;0.80;;;;;;;;;;4941668;29;20204;-63
2022/04/17 04:12:19;;;;;;;0.83;0.83;;;;;;;;;;4935574;29;20281;-63
2022/04/17 04:14:47;;;;;;;0.70;0.70;;;;;;;;;;4947767;29;20233;-64
2022/04/17 04:17:14;;;;;;;1.03;1.03;;;;;;;;;;4941408;29;20209;-65
2022/04/17 04:19:41;;;;;;;0.90;0.90;;;;;;;;;;4941629;29;20654;-66
2022/04/17 04:22:08;;;;;;;1.00;1.00;;;;;;;;;;4948821;29;20214;-63
2022/04/17 04:24:35;;;;;;;1.27;1.17;;;;;;;;;;4945041;29;20466;-64
2022/04/17 04:29:49;;;;;;;1.10;1.10;;;;;;;;;;4940900;29;20243;-63
2022/04/17 04:32:19;;;;;;;3.60;0.90;;;;;;;;;;4939979;29;20729;-63
2022/04/17 04:34:46;;;;;;;1.33;1.23;;;;;;;;;;4940371;29;20218;-63
2022/04/17 04:37:13;;;;;;;1.13;1.10;;;;;;;;;;4950713;28;20717;-63
2022/04/17 04:39:40;;;;;;;1.00;1.00;;;;;;;;;;4950082;29;20273;-64
2022/04/17 04:42:09;;;;;;;1.13;1.13;;;;;;;;;;4946486;29;20214;-64
2022/04/17 04:44:36;;;;;;;1.33;1.33;;;;;;;;;;4934414;29;20656;-63
2022/04/17 04:47:03;;;;;;;1.63;1.53;;;;;;;;;;4936988;29;20705;-63
2022/04/17 04:49:29;;;;;;;1.93;1.73;;;;;;;;;;4930426;29;20208;-63
2022/04/17 04:51:56;;;;;;;1.20;1.10;;;;;;;;;;4929341;29;20204;-63
2022/04/17 04:54:23;;;;;;;1.03;1.03;;;;;;;;;;4937176;29;20270;-63
2022/04/17 04:56:50;;;;;;;1.67;0.90;;;;;;;;;;4934393;29;20293;-62
2022/04/17 04:59:19;;;;;;;1.20;1.20;;;;;;;;;;4947452;29;20218;-62
2022/04/17 05:01:46;;;;;;;0.90;0.90;;;;;;;;;;4949271;29;20334;-63
2022/04/17 05:04:13;;;;;;;0.87;0.87;;;;;;;;;;4946275;29;20230;-63
2022/04/17 05:06:40;;;;;;;1.03;1.03;;;;;;;;;;4931257;29;20221;-63
2022/04/17 05:09:07;;;;;;;0.83;0.83;;;;;;;;;;4938743;29;20219;-63
2022/04/17 05:11:38;;;;;;;2.33;1.00;;;;;;;;;;4944760;29;20591;-62
2022/04/17 05:14:06;;;;;;;1.00;1.00;;;;;;;;;;4945244;29;20262;-63
2022/04/17 05:16:35;;;;;;;0.93;0.93;;;;;;;;;;4945562;29;20226;-63
2022/04/17 05:19:20;;;;;;;1.83;1.03;;;;;;;;;;4931816;29;20219;-62
2022/04/17 05:21:48;;;;;;;1.13;1.13;;;;;;;;;;4942946;29;20207;-63
2022/04/17 05:24:16;;;;;;;1.00;1.00;;;;;;;;;;4941111;29;20722;-64
2022/04/17 05:26:43;;;;;;;1.00;1.00;;;;;;;;;;4936403;28;20255;-63
2022/04/17 05:29:10;;;;;;;1.13;1.13;;;;;;;;;;4938957;28;20680;-63
2022/04/17 05:31:38;;;;;;;2.63;1.30;;;;;;;;;;4938397;29;21010;-63
2022/04/17 05:34:06;;;;;;;1.40;1.30;;;;;;;;;;4937121;29;20204;-63
2022/04/17 05:36:33;;;;;;;1.30;1.20;;;;;;;;;;4945060;29;20214;-63
2022/04/17 05:39:00;;;;;;;1.10;1.10;;;;;;;;;;4938078;29;20211;-63
2022/04/17 05:41:27;;;;;;;1.10;1.10;;;;;;;;;;4938074;29;20211;-63
2022/04/17 05:43:55;;;;;;;7.00;1.47;;;;;;;;;;4942497;29;20227;-62
2022/04/17 05:46:22;;;;;;;3.40;1.30;;;;;;;;;;4937617;29;20687;-63
2022/04/17 05:48:50;;;;;;;1.00;1.00;;;;;;;;;;4939061;29;20294;-63
2022/04/17 05:51:17;;;;;;;1.27;1.20;;;;;;;;;;4934883;28;20216;-64
2022/04/17 05:53:44;;;;;;;1.70;1.40;;;;;;;;;;4934552;29;20199;-63
2022/04/17 05:56:12;;;;;;;1.40;1.40;;;;;;;;;;4942087;29;20215;-63
2022/04/17 05:58:39;;;;;;;3.07;1.60;;;;;;;;;;4944836;29;20203;-63
2022/04/17 06:01:06;;;;;;;2.27;1.60;;;;;;;;;;4941253;28;20223;-63
2022/04/17 06:03:33;;;;;;;3.00;1.10;;;;;;;;;;4932926;29;20301;-63
2022/04/17 06:06:01;;;;;;;1.30;1.30;;;;;;;;;;4935569;29;20275;-63
2022/04/17 06:08:28;;;;;;;1.80;1.70;;;;;;;;;;4941934;29;20218;-63
2022/04/17 06:10:57;;;;;;;3.60;1.40;;;;;;;;;;4940594;29;20258;-63
2022/04/17 06:13:24;;;;;;;0.90;0.90;;;;;;;;;;4943639;29;20214;-63
2022/04/17 06:15:51;;;;;;;1.57;1.07;;;;;;;;;;4946887;29;20274;-63
2022/04/17 06:18:18;;;;;;;2.10;1.20;;;;;;;;;;4939336;29;20215;-63
2022/04/17 06:20:45;;;;;;;1.50;1.40;;;;;;;;;;4948907;29;20217;-63
2022/04/17 06:23:14;;;;;;;1.60;1.50;;;;;;;;;;4931833;29;20236;-63
2022/04/17 06:25:41;;;;;;;1.47;1.30;;;;;;;;;;4932878;29;20314;-63
2022/04/17 06:28:08;;;;;;;3.33;1.43;;;;;;;;;;4947337;29;20949;-63
2022/04/17 06:30:35;;;;;;;1.07;1.07;;;;;;;;;;4947917;29;20289;-63
2022/04/17 06:33:02;;;;;;;1.20;1.20;;;;;;;;;;4938734;29;20686;-63
2022/04/17 06:35:29;;;;;;;1.03;0.90;;;;;;;;;;4942589;29;20210;-63
2022/04/17 06:37:57;;;;;;;1.10;1.10;;;;;;;;;;4938260;29;20214;-63
2022/04/17 06:40:27;;;;;;;2.20;1.30;;;;;;;;;;4933857;29;20204;-64
2022/04/17 06:42:56;;;;;;;0.90;0.90;;;;;;;;;;4948722;29;20262;-62
2022/04/17 06:45:23;;;;;;;0.87;0.87;;;;;;;;;;4940621;29;20215;-63
2022/04/17 06:47:50;;;;;;;0.90;0.90;;;;;;;;;;4934556;29;20212;-64
2022/04/17 06:50:18;;;;;;;0.97;0.80;;;;;;;;;;4941801;29;20207;-62
2022/04/17 06:52:45;;;;;;;0.93;0.87;;;;;;;;;;4941753;29;20203;-61
2022/04/17 06:55:12;;;;;;;1.40;0.80;;;;;;;;;;4944192;29;20286;-62
2022/04/17 06:57:45;;;;;;;0.80;0.80;;;;;;;;;;4939217;29;20271;-64
2022/04/17 07:00:13;;;;;;;0.90;0.90;;;;;;;;;;4948635;29;20208;-64
2022/04/17 07:02:40;;;;;;;1.27;1.00;;;;;;;;;;4947292;29;20582;-62
2022/04/17 07:05:08;;;;;;;0.60;0.60;;;;;;;;;;4937598;29;20224;-69
2022/04/17 07:07:35;;;;;;;1.23;0.63;;;;;;;;;;4941157;29;20662;-64
2022/04/17 07:10:02;;;;;;;1.00;1.00;;;;;;;;;;4941267;29;20204;-64
2022/04/17 07:12:30;;;;;;;1.30;1.20;;;;;;;;;;4942348;29;20214;-62
2022/04/17 07:15:00;;;;;;;1.30;0.80;;;;;;;;;;4947831;29;20233;-63
2022/04/17 07:17:34;;;;;;;0.73;0.73;;;;;;;;;;4938629;29;20249;-64
2022/04/17 07:20:01;;;;;;;1.97;1.37;;;;;;;;;;4942442;29;20233;-63
2022/04/17 07:22:28;;;;;;;1.70;0.90;;;;;;;;;;4946062;29;20835;-64
2022/04/17 07:24:57;;;;;;;3.47;0.80;;;;;;;;;;4941725;29;20243;-64
2022/04/17 07:27:25;;;;;;;0.90;0.90;;;;;;;;;;4940918;29;20295;-64
2022/04/17 07:29:53;;;;;;;1.07;1.07;;;;;;;;;;4935744;29;20243;-64
2022/04/17 07:32:21;;;;;;;0.90;0.90;;;;;;;;;;4944965;29;20972;-63
2022/04/17 07:34:50;;;;;;;1.10;1.10;;;;;;;;;;4940249;29;20207;-64
2022/04/17 07:37:25;;;;;;;0.70;0.70;;;;;;;;;;4948896;29;20297;-60
2022/04/17 07:39:52;;;;;;;0.93;0.93;;;;;;;;;;4942948;29;20917;-64
2022/04/17 07:42:20;;;;;;;0.77;0.77;;;;;;;;;;4935351;29;20211;-63
2022/04/17 07:44:51;;;;;;;1.10;1.10;;;;;;;;;;4937659;29;20234;-63
2022/04/17 07:47:18;;;;;;;1.00;1.00;;;;;;;;;;4938457;29;20255;-64
2022/04/17 07:49:46;;;;;;;1.63;1.07;;;;;;;;;;4936429;29;20748;-62
2022/04/17 07:52:13;;;;;;;0.77;0.77;;;;;;;;;;4947840;29;20631;-63
2022/04/17 07:54:40;;;;;;;0.63;0.63;;;;;;;;;;4946066;29;20203;-63
2022/04/17 07:57:13;;;;;;;0.73;0.73;;;;;;;;;;4933013;29;20295;-63
2022/04/17 07:59:40;;;;;;;0.90;0.90;;;;;;;;;;4934731;29;20398;-65
2022/04/17 08:02:22;;;;;;;0.60;0.60;;;;;;;;;;4932789;29;20219;-63
2022/04/17 08:04:50;;;;;;;0.77;0.70;;;;;;;;;;4935763;29;20235;-64
2022/04/17 08:07:17;;;;;;;0.60;0.60;;;;;;;;;;4939690;29;20203;-63
2022/04/17 08:09:44;;;;;;;0.67;0.63;;;;;;;;;;4932057;29;20247;-64
2022/04/17 08:12:11;;;;;;;0.60;0.60;;;;;;;;;;4936038;29;20247;-66
2022/04/17 08:14:38;;;;;;;0.80;0.80;;;;;;;;;;4936015;29;20512;-64
2022/04/17 08:17:05;;;;;;;0.90;0.90;;;;;;;;;;4942325;29;20203;-64
2022/04/17 08:19:33;;;;;;;1.90;1.00;;;;;;;;;;4947256;29;20952;-62
2022/04/17 08:22:02;;;;;;;1.80;0.90;;;;;;;;;;4935020;29;20262;-67
2022/04/17 08:24:30;;;;;;;0.90;0.90;;;;;;;;;;4935413;29;20238;-64
2022/04/17 08:26:57;;;;;;;0.90;0.80;;;;;;;;;;4936644;29;20274;-64
2022/04/17 08:29:24;;;;;;;1.00;0.70;;;;;;;;;;4944628;28;20246;-63
2022/04/17 08:31:51;;;;;;;0.60;0.60;;;;;;;;;;4941289;29;20199;-63
2022/04/17 08:34:18;;;;;;;1.47;0.90;;;;;;;;;;4936819;29;20263;-63
2022/04/17 08:36:45;;;;;;;1.33;0.57;;;;;;;;;;4936634;29;20204;-63
2022/04/17 08:39:14;;;;;;;1.07;0.97;;;;;;;;;;4946310;29;20688;-63
2022/04/17 08:41:43;;;;;;;0.90;0.90;;;;;;;;;;4938254;29;20215;-64
2022/04/17 08:44:11;;;;;;;0.60;0.60;;;;;;;;;;4946629;29;20231;-69
2022/04/17 08:46:38;;;;;;;0.70;0.70;;;;;;;;;;4943324;29;20643;-63
2022/04/17 08:49:06;;;;;;;0.77;0.77;;;;;;;;;;4944785;29;20211;-67
2022/04/17 08:51:33;;;;;;;1.00;1.00;;;;;;;;;;4936525;29;20215;-64
2022/04/17 08:54:02;;;;;;;0.70;0.70;;;;;;;;;;4933185;29;20219;-62
2022/04/17 08:56:31;;;;;;;0.60;0.60;;;;;;;;;;4941447;29;20207;-61
2022/04/17 08:59:00;;;;;;;0.90;0.90;;;;;;;;;;4936217;29;20227;-63
2022/04/17 09:01:27;;;;;;;0.50;0.50;;;;;;;;;;4929829;29;20807;-62
2022/04/17 09:03:54;;;;;;;0.77;0.77;;;;;;;;;;4932084;29;20313;-62
2022/04/17 09:06:22;;;;;;;0.80;0.80;;;;;;;;;;4946552;29;20662;-64
2022/04/17 09:08:58;;;;;;;0.70;0.70;;;;;;;;;;4938574;29;20226;-65
2022/04/17 09:11:26;;;;;;;0.70;0.70;;;;;;;;;;4933745;29;20670;-63
2022/04/17 09:13:56;;;;;;;0.80;0.80;;;;;;;;;;4945688;29;20214;-61
2022/04/17 09:16:28;;;;;;;1.03;0.90;;;;;;;;;;4947225;29;20217;-63
2022/04/17 09:18:55;;;;;;;0.93;0.70;;;;;;;;;;4929515;29;20231;-71
2022/04/17 09:21:33;;;;;;;0.80;0.80;;;;;;;;;;4939194;29;20294;-62
2022/04/17 09:24:16;;;;;;;0.67;0.67;;;;;;;;;;4939579;29;20316;-62
2022/04/17 09:26:51;;;;;;;0.53;0.53;;;;;;;;;;4934646;29;20606;-64
2022/04/17 09:29:20;;;;;;;0.60;0.60;;;;;;;;;;4941461;29;20247;-65
2022/04/17 09:31:47;;;;;;;0.57;0.57;;;;;;;;;;4935110;29;20220;-66
2022/04/17 09:34:15;;;;;;;1.80;0.70;;;;;;;;;;4940850;28;20209;-63
2022/04/17 09:36:42;;;;;;;0.68;0.68;;;;;;;;;;4937600;29;20591;-63
2022/04/17 09:39:13;;;;;;;0.70;0.70;;;;;;;;;;4948780;29;20207;-64
2022/04/17 09:41:52;;;;;;;5.00;0.60;;;;;;;;;;4939664;29;20207;-62
2022/04/17 09:44:35;;;;;;;0.93;0.70;;;;;;;;;;4942419;29;20605;-63
2022/04/17 09:47:02;;;;;;;1.33;0.60;;;;;;;;;;4937137;29;20235;-69
2022/04/17 09:49:29;;;;;;;1.03;0.60;;;;;;;;;;4935658;29;20270;-64
2022/04/17 09:52:07;;;;;;;2.17;0.77;;;;;;;;;;4938542;29;20674;-64
2022/04/17 09:54:34;;;;;;;0.67;0.67;;;;;;;;;;4943184;29;20207;-64
2022/04/17 09:57:01;;;;;;;1.13;0.70;;;;;;;;;;4934565;29;20223;-64
2022/04/17 09:59:29;;;;;;;0.50;0.50;;;;;;;;;;4938882;29;20663;-63
2022/04/17 10:01:57;;;;;;;0.53;0.50;;;;;;;;;;4936344;29;20484;-63
2022/04/17 10:04:25;;;;;;;0.63;0.63;;;;;;;;;;4937863;29;20230;-64
2022/04/17 10:06:53;;;;;;;0.67;0.67;;;;;;;;;;4934371;29;20628;-64
2022/04/17 10:09:20;;;;;;;0.67;0.67;;;;;;;;;;4940107;29;20215;-64
2022/04/17 10:11:49;;;;;;;0.77;0.77;;;;;;;;;;4938268;29;20208;-64
2022/04/17 10:14:16;;;;;;;0.50;0.50;;;;;;;;;;4944160;29;20235;-64
2022/04/17 10:16:46;;;;;;;0.67;0.67;;;;;;;;;;4938086;29;20285;-64
2022/04/17 10:19:14;;;;;;;0.70;0.70;;;;;;;;;;4946310;29;20208;-64
2022/04/17 10:21:41;;;;;;;0.63;0.63;;;;;;;;;;4943751;29;20218;-64
2022/04/17 10:24:09;;;;;;;0.75;0.75;;;;;;;;;;4943060;29;20215;-64
2022/04/17 10:26:40;;;;;;;0.60;0.60;;;;;;;;;;4949572;29;20226;-64
2022/04/17 10:29:10;;;;;;;0.60;0.60;;;;;;;;;;4939866;29;20206;-64
2022/04/17 10:31:44;;;;;;;1.05;0.95;;;;;;;;;;4938846;29;20211;-64
2022/04/17 10:34:18;;;;;;;0.73;0.73;;;;;;;;;;4938784;29;20370;-62
2022/04/17 10:37:12;;;;;;;0.80;0.80;;;;;;;;;;4937486;29;20267;-62
2022/04/17 10:39:42;;;;;;;4.22;0.80;;;;;;;;;;4912312;29;20220;-65
2022/04/17 10:42:09;;;;;;;0.80;0.80;;;;;;;;;;4943839;29;20219;-62
2022/04/17 10:44:41;;;;;;;1.20;0.90;;;;;;;;;;4946517;29;20249;-63
2022/04/17 10:47:08;;;;;;;0.60;0.60;;;;;;;;;;4936254;29;20216;-62
2022/04/17 10:49:52;;;;;;;1.05;0.77;;;;;;;;;;4949997;29;20207;-62
2022/04/17 10:52:26;;;;;;;1.38;0.85;;;;;;;;;;4934194;29;20214;-63
2022/04/17 10:54:53;;;;;;;0.20;0.20;;;;;;;;;;4938070;29;20215;-62
2022/04/17 10:57:24;;;;;;;0.77;0.77;;;;;;;;;;4952785;28;20290;-64
2022/04/17 10:59:51;;;;;;;0.60;0.60;;;;;;;;;;4960678;28;20292;-64
2022/04/17 11:02:25;;;;;;;0.75;0.55;;;;;;;;;;4933977;29;20219;-63
2022/04/17 11:04:54;;;;;;;0.50;0.50;;;;;;;;;;4946092;29;20323;-62
2022/04/17 11:07:27;;;;;;;0.98;0.85;;;;;;;;;;4935702;29;20675;-64
2022/04/17 11:10:22;;;;;;;0.60;0.60;;;;;;;;;;4942577;29;20673;-62
2022/04/17 11:12:53;;;;;;;0.75;0.57;;;;;;;;;;4898502;29;20554;-61
2022/04/17 11:15:24;;;;;;;0.73;0.73;;;;;;;;;;4935740;29;20671;-61
2022/04/17 11:17:51;;;;;;;0.52;0.52;;;;;;;;;;4946380;29;20207;-62
2022/04/17 11:20:20;;;;;;;0.60;0.60;;;;;;;;;;4953183;28;20212;-68
2022/04/17 11:22:47;;;;;;;0.55;0.55;;;;;;;;;;4950950;29;20791;-70
2022/04/17 11:25:14;;;;;;;0.50;0.50;;;;;;;;;;4949176;29;20549;-69
2022/04/17 11:27:42;;;;;;;0.60;0.60;;;;;;;;;;4938128;28;20684;-69
2022/04/17 11:30:10;;;;;;;0.95;0.70;;;;;;;;;;4939497;28;20480;-65
2022/04/17 11:32:51;;;;;;;0.60;0.60;;;;;;;;;;4931772;29;20322;-69
2022/04/17 11:35:23;;;;;;;0.65;0.60;;;;;;;;;;4933500;29;20231;-71
2022/04/17 11:37:54;;;;;;;0.60;0.60;;;;;;;;;;4933076;29;20207;-65
2022/04/17 11:40:23;;;;;;;1.65;0.80;;;;;;;;;;4933449;29;20214;-70
2022/04/17 11:42:51;;;;;;;1.08;0.60;;;;;;;;;;4950993;29;20270;-69
2022/04/17 11:45:19;;;;;;;0.52;0.52;;;;;;;;;;4944027;29;20231;-68
2022/04/17 11:47:47;;;;;;;0.50;0.50;;;;;;;;;;4939150;29;20210;-70
2022/04/17 11:50:21;;;;;;;0.70;0.70;;;;;;;;;;4948357;29;20226;-68
2022/04/17 11:52:51;;;;;;;0.98;0.70;;;;;;;;;;4941366;29;20214;-69
2022/04/17 11:55:23;;;;;;;0.75;0.75;;;;;;;;;;4948686;29;20622;-68
2022/04/17 11:57:50;;;;;;;0.43;0.43;;;;;;;;;;4941294;29;20210;-66
2022/04/17 12:00:17;;;;;;;0.50;0.50;;;;;;;;;;4931340;29;20214;-66
2022/04/17 12:02:44;;;;;;;0.75;0.75;;;;;;;;;;4944788;29;20218;-69
2022/04/17 12:05:12;;;;;;;0.68;0.50;;;;;;;;;;4944180;29;20241;-67
2022/04/17 12:07:40;;;;;;;0.50;0.50;;;;;;;;;;4944899;29;20210;-67
2022/04/17 12:10:09;;;;;;;0.60;0.60;;;;;;;;;;4944895;29;20217;-69
2022/04/17 12:12:36;;;;;;;0.80;0.43;;;;;;;;;;4930607;29;20212;-68
2022/04/17 12:15:04;;;;;;;0.55;0.55;;;;;;;;;;4934199;29;20226;-66
2022/04/17 12:17:32;;;;;;;0.70;0.70;;;;;;;;;;4935370;29;20215;-67
2022/04/17 12:19:59;;;;;;;0.60;0.60;;;;;;;;;;4941403;29;20238;-67
2022/04/17 12:22:26;;;;;;;1.83;0.80;;;;;;;;;;4938272;29;20214;-66
2022/04/17 12:24:53;;;;;;;0.60;0.60;;;;;;;;;;4939860;28;20204;-69
2022/04/17 12:27:22;;;;;;;0.52;0.50;;;;;;;;;;4933927;29;20210;-67
2022/04/17 12:29:50;;;;;;;0.40;0.40;;;;;;;;;;4948236;29;20245;-70
2022/04/17 12:32:17;;;;;;;0.65;0.50;;;;;;;;;;4932185;29;20745;-69
2022/04/17 12:34:45;;;;;;;0.60;0.60;;;;;;;;;;4944632;29;20293;-66
2022/04/17 12:37:22;;;;;;;0.60;0.60;;;;;;;;;;4941188;29;20302;-68
2022/04/17 12:39:49;;;;;;;0.35;0.35;;;;;;;;;;4948545;29;20915;-67
2022/04/17 12:42:17;;;;;;;0.40;0.40;;;;;;;;;;4947958;29;20215;-67
2022/04/17 12:44:47;;;;;;;0.60;0.60;;;;;;;;;;4940594;29;20756;-68
2022/04/17 12:47:14;;;;;;;0.90;0.45;;;;;;;;;;4928680;29;20255;-66
2022/04/17 12:49:41;;;;;;;1.08;0.60;;;;;;;;;;4945101;29;20235;-69
2022/04/17 12:52:09;;;;;;;0.30;0.30;;;;;;;;;;4948331;29;20211;-68
2022/04/17 12:54:37;;;;;;;0.57;0.57;;;;;;;;;;4946929;29;20686;-69
2022/04/17 12:57:05;;;;;;;0.50;0.50;;;;;;;;;;4947950;29;20219;-71
2022/04/17 12:59:41;;;;;;;1.75;0.40;;;;;;;;;;4939095;29;20221;-69
2022/04/17 13:02:13;;;;;;;0.52;0.52;;;;;;;;;;4929312;29;20219;-69
2022/04/17 13:04:44;;;;;;;0.40;0.40;;;;;;;;;;4934432;29;20267;-68
2022/04/17 13:07:13;;;;;;;0.50;0.50;;;;;;;;;;4935251;29;20235;-67
2022/04/17 13:09:49;;;;;;;0.52;0.52;;;;;;;;;;4929353;29;20204;-68
2022/04/17 13:12:30;;;;;;;0.30;0.30;;;;;;;;;;4937170;29;20280;-67
2022/04/17 13:14:57;;;;;;;1.55;0.40;;;;;;;;;;4951179;29;20217;-67
2022/04/17 13:17:27;;;;;;;0.77;0.50;;;;;;;;;;4948570;29;20749;-67
2022/04/17 13:19:54;;;;;;;1.00;0.60;;;;;;;;;;4949075;29;20466;-68
2022/04/17 13:22:22;;;;;;;0.60;0.60;;;;;;;;;;4949596;29;20215;-68
2022/04/17 13:24:49;;;;;;;0.52;0.52;;;;;;;;;;4932943;29;20667;-66
2022/04/17 13:27:16;;;;;;;0.38;0.38;;;;;;;;;;4939569;29;20227;-68
2022/04/17 13:29:44;;;;;;;0.30;0.30;;;;;;;;;;4943176;29;20249;-71
2022/04/17 13:32:12;;;;;;;0.68;0.47;;;;;;;;;;4947264;29;20724;-69
2022/04/17 13:34:42;;;;;;;0.57;0.57;;;;;;;;;;4956345;28;20302;-74
2022/04/17 13:39:53;;;;;;;0.50;0.50;;;;;;;;;;4943703;29;20567;-71
2022/04/17 13:42:20;;;;;;;0.95;0.63;;;;;;;;;;4946620;29;20266;-70
2022/04/17 13:44:47;;;;;;;0.55;0.40;;;;;;;;;;4932012;29;20303;-70
2022/04/17 13:47:15;;;;;;;0.50;0.50;;;;;;;;;;4930828;29;20227;-72
2022/04/17 13:49:43;;;;;;;0.50;0.50;;;;;;;;;;4943881;29;20238;-70
2022/04/17 13:52:10;;;;;;;0.40;0.40;;;;;;;;;;4946812;29;20219;-70
2022/04/17 13:54:38;;;;;;;0.50;0.50;;;;;;;;;;4931672;29;20230;-71
2022/04/17 13:57:05;;;;;;;0.85;0.55;;;;;;;;;;4944660;29;20207;-70
2022/04/17 13:59:32;;;;;;;0.40;0.40;;;;;;;;;;4949736;29;20241;-71
2022/04/17 14:01:59;;;;;;;0.32;0.32;;;;;;;;;;4937652;29;20216;-70
2022/04/17 14:04:26;;;;;;;0.32;0.32;;;;;;;;;;4931561;29;20333;-70
2022/04/17 14:06:55;;;;;;;0.35;0.35;;;;;;;;;;4943348;28;20230;-72
2022/04/17 14:09:22;;;;;;;1.45;0.43;;;;;;;;;;4968937;28;20220;-71
2022/04/17 14:11:49;;;;;;;0.35;0.35;;;;;;;;;;4952420;28;20215;-73
2022/04/17 14:14:16;;;;;;;0.63;0.38;;;;;;;;;;4931756;29;20234;-71
2022/04/17 14:16:43;;;;;;;0.13;0.10;;;;;;;;;;4946243;29;20210;-69
2022/04/17 14:19:10;;;;;;;0.38;0.38;;;;;;;;;;4948817;29;20214;-70
2022/04/17 14:21:37;;;;;;;0.40;0.40;;;;;;;;;;4934726;29;20238;-69
2022/04/17 14:24:06;;;;;;;0.50;0.30;;;;;;;;;;4932145;29;20792;-69
2022/04/17 14:26:33;;;;;;;0.40;0.40;;;;;;;;;;4942386;29;20628;-69
2022/04/17 14:29:00;;;;;;;0.40;0.40;;;;;;;;;;4938098;28;20278;-69
2022/04/17 14:31:28;;;;;;;0.65;0.65;;;;;;;;;;4940120;29;20215;-69
2022/04/17 14:33:56;;;;;;;0.50;0.50;;;;;;;;;;4939490;29;20214;-71
2022/04/17 14:36:23;;;;;;;0.73;0.40;;;;;;;;;;4935683;29;20207;-71
2022/04/17 14:38:50;;;;;;;1.13;0.40;;;;;;;;;;4946571;29;20207;-71
2022/04/17 14:41:18;;;;;;;0.47;0.47;;;;;;;;;;4950076;29;20419;-71
2022/04/17 14:43:45;;;;;;;0.30;0.30;;;;;;;;;;4940903;29;20588;-68
2022/04/17 14:46:12;;;;;;;0.50;0.50;;;;;;;;;;4949285;29;20767;-70
2022/04/17 14:48:43;;;;;;;0.30;0.30;;;;;;;;;;4946422;29;20247;-70
2022/04/17 14:51:11;;;;;;;0.20;0.20;;;;;;;;;;4944238;29;20234;-71
2022/04/17 14:53:38;;;;;;;0.50;0.50;;;;;;;;;;4934403;29;20540;-70
2022/04/17 14:56:05;;;;;;;0.50;0.50;;;;;;;;;;4946075;29;20212;-71
2022/04/17 14:58:34;;;;;;;0.73;0.45;;;;;;;;;;4933519;29;20207;-71
2022/04/17 15:01:01;;;;;;;0.40;0.40;;;;;;;;;;4946822;29;20214;-71